createdAt,value
2018-03-28T00:01:15.648Z,30.20
2018-03-28T00:03:44.150Z,29.27
2018-03-28T00:06:16.432Z,30.37
2018-03-28T00:08:49.945Z,30.17
2018-03-28T00:11:30.259Z,31.50
2018-03-28T00:14:03.032Z,28.00
2018-03-28T00:16:32.830Z,35.23
2018-03-28T00:19:10.265Z,24.13
2018-03-28T00:21:39.204Z,51.17
2018-03-28T00:24:12.221Z,25.80
2018-03-28T00:26:43.460Z,25.03
2018-03-28T00:29:13.063Z,27.63
2018-03-28T00:31:50.151Z,28.17
2018-03-28T00:34:21.130Z,28.70
2018-03-28T00:36:49.184Z,29.70
2018-03-28T00:39:22.427Z,30.50
2018-03-28T00:41:53.071Z,31.10
2018-03-28T00:44:23.416Z,29.23
2018-03-28T00:46:55.706Z,28.27
2018-03-28T00:49:26.548Z,29.93
2018-03-28T00:51:54.800Z,29.50
2018-03-28T00:54:25.231Z,31.67
2018-03-28T00:56:54.790Z,31.27
2018-03-28T00:59:26.276Z,30.17
2018-03-28T01:02:01.098Z,31.90
2018-03-28T01:04:43.689Z,33.87
2018-03-28T01:07:19.076Z,31.20
2018-03-28T01:09:48.675Z,32.70
2018-03-28T01:12:23.112Z,30.77
2018-03-28T01:14:59.578Z,32.77
2018-03-28T01:17:33.900Z,30.77
2018-03-28T01:20:10.854Z,30.50
2018-03-28T01:22:46.287Z,31.30
2018-03-28T01:25:32.122Z,31.50
2018-03-28T01:28:08.085Z,31.80
2018-03-28T01:30:55.315Z,32.70
2018-03-28T01:33:27.340Z,33.43
2018-03-28T01:38:49.116Z,32.10
2018-03-28T01:41:19.099Z,30.77
2018-03-28T01:43:58.817Z,31.33
2018-03-28T01:46:27.814Z,32.60
2018-03-28T01:49:03.661Z,33.00
2018-03-28T01:51:36.428Z,32.60
2018-03-28T01:54:05.389Z,33.30
2018-03-28T01:56:36.560Z,31.33
2018-03-28T01:59:11.049Z,31.70
2018-03-28T02:01:40.245Z,30.83
2018-03-28T02:04:12.711Z,33.63
2018-03-28T02:06:45.725Z,31.97
2018-03-28T02:09:14.945Z,29.80
2018-03-28T02:11:47.326Z,31.60
2018-03-28T02:14:17.867Z,31.80
2018-03-28T02:16:48.325Z,31.40
2018-03-28T02:19:22.038Z,30.93
2018-03-28T02:21:52.397Z,31.60
2018-03-28T02:26:56.933Z,32.20
2018-03-28T02:29:25.702Z,29.80
2018-03-28T02:31:55.343Z,29.50
2018-03-28T02:34:25.542Z,30.47
2018-03-28T02:36:53.753Z,30.80
2018-03-28T02:42:01.493Z,30.10
2018-03-28T02:44:46.950Z,31.87
2018-03-28T02:47:20.647Z,31.07
2018-03-28T02:49:50.383Z,32.30
2018-03-28T02:52:20.448Z,31.83
2018-03-28T02:54:52.592Z,36.17
2018-03-28T02:57:23.661Z,31.63
2018-03-28T02:59:56.379Z,31.60
2018-03-28T03:02:24.951Z,33.13
2018-03-28T03:04:53.053Z,32.90
2018-03-28T03:10:03.862Z,32.53
2018-03-28T03:12:33.557Z,34.80
2018-03-28T03:15:06.059Z,35.63
2018-03-28T03:17:41.967Z,35.67
2018-03-28T03:20:14.910Z,33.10
2018-03-28T03:22:44.604Z,33.00
2018-03-28T03:25:13.068Z,34.30
2018-03-28T03:27:44.446Z,35.20
2018-03-28T03:30:17.393Z,35.17
2018-03-28T03:32:46.136Z,34.90
2018-03-28T03:35:18.439Z,35.47
2018-03-28T03:37:56.349Z,34.80
2018-03-28T03:43:07.760Z,34.43
2018-03-28T03:45:44.959Z,32.03
2018-03-28T03:48:13.008Z,35.67
2018-03-28T03:50:42.695Z,32.70
2018-03-28T03:58:19.528Z,32.67
2018-03-28T04:00:54.371Z,33.07
2018-03-28T04:03:27.048Z,31.20
2018-03-28T04:06:03.952Z,30.33
2018-03-28T04:08:33.323Z,29.40
2018-03-28T04:11:02.984Z,28.97
2018-03-28T04:13:31.819Z,27.53
2018-03-28T04:16:14.870Z,29.90
2018-03-28T04:18:45.908Z,29.33
2018-03-28T04:21:16.416Z,30.10
2018-03-28T04:23:47.271Z,29.80
2018-03-28T04:26:17.329Z,30.27
2018-03-28T04:28:49.407Z,29.77
2018-03-28T04:31:20.905Z,28.67
2018-03-28T04:33:56.440Z,30.03
2018-03-28T04:39:11.514Z,30.77
2018-03-28T04:41:43.342Z,31.87
2018-03-28T04:44:19.706Z,31.77
2018-03-28T04:46:48.184Z,28.60
2018-03-28T04:49:19.308Z,28.93
2018-03-28T04:51:53.028Z,29.10
2018-03-28T04:54:22.101Z,30.30
2018-03-28T04:56:53.701Z,29.70
2018-03-28T04:59:23.394Z,29.50
2018-03-28T05:04:37.387Z,28.60
2018-03-28T05:09:41.864Z,29.27
2018-03-28T05:12:14.168Z,27.80
2018-03-28T05:17:23.459Z,28.57
2018-03-28T05:19:54.319Z,28.10
2018-03-28T05:22:22.777Z,30.20
2018-03-28T05:24:55.436Z,29.63
2018-03-28T05:27:28.629Z,28.43
2018-03-28T05:30:00.682Z,28.50
2018-03-28T05:32:32.150Z,29.17
2018-03-28T05:35:07.826Z,27.07
2018-03-28T05:37:39.908Z,26.20
2018-03-28T05:40:06.872Z,25.90
2018-03-28T05:42:42.509Z,25.70
2018-03-28T05:45:26.532Z,25.13
2018-03-28T05:47:58.735Z,24.90
2018-03-28T05:50:29.626Z,24.53
2018-03-28T05:52:59.284Z,25.07
2018-03-28T05:58:07.060Z,23.20
2018-03-28T06:00:34.442Z,23.60
2018-03-28T06:03:05.879Z,22.90
2018-03-28T06:05:34.528Z,23.73
2018-03-28T06:13:30.209Z,20.23
2018-03-28T06:16:02.286Z,19.20
2018-03-28T06:18:30.225Z,18.73
2018-03-28T06:26:15.267Z,16.80
2018-03-28T06:28:42.747Z,15.40
2018-03-28T06:31:12.340Z,14.50
2018-03-28T06:36:20.078Z,11.67
2018-03-28T06:38:48.925Z,12.57
2018-03-28T06:41:18.904Z,11.63
2018-03-28T06:43:58.872Z,11.43
2018-03-28T06:46:30.272Z,10.50
2018-03-28T06:48:58.258Z,10.97
2018-03-28T06:51:27.886Z,10.80
2018-03-28T06:53:59.004Z,10.20
2018-03-28T06:56:27.274Z,7.70
2018-03-28T06:58:57.884Z,9.37
2018-03-28T07:01:31.863Z,9.30
2018-03-28T07:04:03.639Z,9.40
2018-03-28T07:06:39.156Z,7.90
2018-03-28T07:09:10.069Z,8.40
2018-03-28T07:11:42.611Z,8.27
2018-03-28T07:17:05.855Z,6.20
2018-03-28T07:19:37.083Z,6.47
2018-03-28T07:22:07.801Z,6.27
2018-03-28T07:24:44.300Z,7.90
2018-03-28T07:27:18.182Z,6.70
2018-03-28T07:29:46.464Z,6.90
2018-03-28T07:32:14.522Z,7.50
2018-03-28T07:37:19.462Z,6.60
2018-03-28T07:39:49.983Z,6.00
2018-03-28T07:42:20.727Z,5.83
2018-03-28T07:44:48.611Z,6.27
2018-03-28T07:47:19.258Z,6.00
2018-03-28T07:49:50.692Z,6.37
2018-03-28T07:52:36.614Z,5.90
2018-03-28T07:55:07.554Z,5.93
2018-03-28T08:00:25.413Z,5.50
2018-03-28T08:02:55.036Z,6.00
2018-03-28T08:05:25.296Z,6.00
2018-03-28T08:07:57.953Z,7.80
2018-03-28T08:10:26.208Z,6.07
2018-03-28T08:12:55.411Z,9.63
2018-03-28T08:15:22.643Z,5.43
2018-03-28T08:17:51.409Z,5.90
2018-03-28T08:20:22.140Z,6.20
2018-03-28T08:23:01.405Z,6.10
2018-03-28T08:25:33.729Z,5.37
2018-03-28T08:28:11.818Z,6.73
2018-03-28T08:30:40.621Z,5.30
2018-03-28T08:33:15.876Z,4.57
2018-03-28T08:35:47.047Z,4.87
2018-03-28T08:38:17.900Z,5.40
2018-03-28T08:40:51.824Z,7.00
2018-03-28T08:45:54.510Z,4.27
2018-03-28T08:48:24.135Z,5.40
2018-03-28T08:50:56.180Z,5.10
2018-03-28T08:53:26.589Z,5.80
2018-03-28T08:56:03.989Z,5.13
2018-03-28T08:58:31.735Z,5.67
2018-03-28T09:01:07.408Z,5.70
2018-03-28T09:03:36.902Z,5.77
2018-03-28T09:06:11.295Z,5.73
2018-03-28T09:08:38.994Z,5.97
2018-03-28T09:11:09.975Z,5.43
2018-03-28T09:16:13.443Z,6.30
2018-03-28T09:18:50.993Z,6.30
2018-03-28T09:21:21.159Z,6.37
2018-03-28T09:23:50.602Z,6.70
2018-03-28T09:26:19.156Z,7.00
2018-03-28T09:28:51.001Z,6.50
2018-03-28T09:31:23.458Z,9.50
2018-03-28T09:33:55.680Z,7.90
2018-03-28T09:36:28.352Z,6.27
2018-03-28T09:39:08.397Z,7.23
2018-03-28T09:41:38.650Z,6.57
2018-03-28T09:44:15.237Z,6.70
2018-03-28T09:46:43.121Z,6.30
2018-03-28T09:49:11.597Z,6.87
2018-03-28T09:54:13.217Z,7.13
2018-03-28T09:56:48.959Z,7.07
2018-03-28T09:59:25.430Z,7.13
2018-03-28T10:01:58.916Z,7.03
2018-03-28T10:04:33.488Z,7.83
2018-03-28T10:07:02.516Z,6.50
2018-03-28T10:09:32.177Z,7.50
2018-03-28T10:12:03.817Z,6.93
2018-03-28T10:14:32.725Z,7.50
2018-03-28T10:17:06.460Z,7.77
2018-03-28T10:19:36.738Z,7.50
2018-03-28T10:22:18.460Z,7.80
2018-03-28T10:24:49.520Z,7.60
2018-03-28T10:27:19.662Z,9.20
2018-03-28T10:29:52.379Z,7.10
2018-03-28T10:32:30.259Z,8.47
2018-03-28T10:35:02.279Z,6.87
2018-03-28T10:37:33.825Z,7.37
2018-03-28T10:40:05.294Z,7.23
2018-03-28T10:42:35.514Z,7.57
2018-03-28T10:45:05.089Z,7.20
2018-03-28T10:47:34.619Z,7.17
2018-03-28T10:50:11.495Z,8.37
2018-03-28T10:52:44.719Z,6.80
2018-03-28T10:55:17.112Z,7.80
2018-03-28T10:57:46.260Z,7.73
2018-03-28T11:00:17.937Z,7.50
2018-03-28T11:05:20.156Z,6.97
2018-03-28T11:07:48.970Z,7.20
2018-03-28T11:10:21.424Z,8.73
2018-03-28T11:13:00.775Z,7.27
2018-03-28T11:18:24.692Z,7.20
2018-03-28T11:20:53.622Z,8.40
2018-03-28T11:23:21.235Z,7.97
2018-03-28T11:25:53.537Z,8.50
2018-03-28T11:28:22.553Z,7.90
2018-03-28T11:30:52.973Z,8.43
2018-03-28T11:33:22.421Z,9.80
2018-03-28T11:35:51.987Z,8.10
2018-03-28T11:40:59.270Z,9.00
2018-03-28T11:43:30.982Z,8.93
2018-03-28T11:46:07.283Z,7.77
2018-03-28T11:48:39.890Z,9.23
2018-03-28T11:51:15.798Z,8.80
2018-03-28T11:53:44.382Z,7.73
2018-03-28T11:56:15.873Z,8.40
2018-03-28T11:58:57.660Z,7.90
2018-03-28T12:01:26.548Z,8.93
2018-03-28T12:04:01.239Z,7.77
2018-03-28T12:06:34.765Z,8.10
2018-03-28T12:09:05.289Z,6.53
2018-03-28T12:17:19.488Z,7.07
2018-03-28T12:19:56.015Z,6.17
2018-03-28T12:22:37.475Z,7.13
2018-03-28T12:27:43.378Z,6.70
2018-03-28T12:32:51.330Z,8.43
2018-03-28T12:35:22.559Z,8.50
2018-03-28T12:37:55.187Z,7.63
2018-03-28T12:40:22.830Z,9.10
2018-03-28T12:42:53.453Z,8.33
2018-03-28T12:45:25.454Z,8.10
2018-03-28T12:47:56.468Z,9.57
2018-03-28T12:50:28.455Z,9.83
2018-03-28T12:52:56.667Z,9.63
2018-03-28T12:55:28.680Z,10.50
2018-03-28T12:58:05.103Z,11.43
2018-03-28T13:00:34.169Z,10.83
2018-03-28T13:03:04.510Z,11.13
2018-03-28T13:05:34.326Z,11.33
2018-03-28T13:08:05.563Z,10.53
2018-03-28T13:10:39.702Z,9.00
2018-03-28T13:13:12.293Z,8.30
2018-03-28T13:15:46.141Z,9.77
2018-03-28T13:18:15.225Z,9.43
2018-03-28T13:20:48.884Z,7.07
2018-03-28T13:23:18.384Z,6.50
2018-03-28T13:28:18.858Z,7.53
2018-03-28T13:33:31.032Z,5.90
2018-03-28T13:36:05.160Z,6.57
2018-03-28T13:41:11.001Z,5.40
2018-03-28T13:43:42.237Z,6.43
2018-03-28T13:46:10.608Z,5.53
2018-03-28T13:51:13.903Z,5.50
2018-03-28T13:53:52.638Z,5.67
2018-03-28T13:59:04.924Z,5.70
2018-03-28T14:01:36.391Z,6.70
2018-03-28T14:04:05.394Z,6.30
2018-03-28T14:06:35.132Z,6.50
2018-03-28T14:09:06.477Z,5.37
2018-03-28T14:14:16.956Z,6.43
2018-03-28T14:16:46.582Z,6.90
2018-03-28T14:19:20.092Z,6.33
2018-03-28T14:21:54.019Z,5.70
2018-03-28T14:24:26.036Z,6.30
2018-03-28T14:27:01.351Z,5.10
2018-03-28T14:29:36.205Z,5.60
2018-03-28T14:32:07.612Z,5.03
2018-03-28T14:34:39.426Z,5.50
2018-03-28T14:37:18.082Z,4.87
2018-03-28T14:39:53.034Z,5.73
2018-03-28T14:50:41.016Z,4.77
2018-03-28T14:53:08.479Z,4.60
2018-03-28T14:55:38.996Z,5.43
2018-03-28T14:58:13.493Z,5.10
2018-03-28T15:00:45.739Z,5.17
2018-03-28T15:03:15.683Z,5.70
2018-03-28T15:05:48.368Z,6.90
2018-03-28T15:08:21.904Z,7.03
2018-03-28T15:10:51.802Z,6.70
2018-03-28T15:13:24.337Z,6.37
2018-03-28T15:15:56.577Z,5.83
2018-03-28T15:18:30.050Z,5.70
2018-03-28T15:23:36.250Z,6.27
2018-03-28T15:26:09.856Z,6.00
2018-03-28T15:28:42.122Z,6.60
2018-03-28T15:31:17.847Z,5.50
2018-03-28T15:33:47.297Z,5.80
2018-03-28T15:36:25.258Z,6.33
2018-03-28T15:39:01.475Z,6.50
2018-03-28T15:41:33.762Z,7.27
2018-03-28T15:44:02.394Z,5.90
2018-03-28T15:46:36.198Z,6.53
2018-03-28T15:49:07.715Z,5.77
2018-03-28T15:51:39.065Z,5.20
2018-03-28T15:54:11.474Z,5.87
2018-03-28T15:56:39.037Z,5.13
2018-03-28T15:59:06.564Z,5.47
2018-03-28T16:01:38.250Z,4.90
2018-03-28T16:04:09.843Z,5.40
2018-03-28T16:09:22.556Z,6.23
2018-03-28T16:11:51.626Z,6.30
2018-03-28T16:14:26.234Z,6.13
2018-03-28T16:16:57.596Z,6.70
2018-03-28T16:19:29.005Z,8.30
2018-03-28T16:22:03.346Z,7.20
2018-03-28T16:24:34.989Z,7.07
2018-03-28T16:27:10.220Z,6.90
2018-03-28T16:29:42.321Z,6.30
2018-03-28T16:32:13.974Z,4.83
2018-03-28T16:34:44.919Z,5.60
2018-03-28T16:37:18.131Z,6.60
2018-03-28T16:39:49.228Z,5.70
2018-03-28T16:45:08.766Z,6.00
2018-03-28T16:47:38.723Z,10.73
2018-03-28T16:50:10.134Z,6.90
2018-03-28T16:52:39.863Z,6.67
2018-03-28T16:57:46.986Z,8.70
2018-03-28T17:02:54.494Z,7.40
2018-03-28T17:05:23.062Z,10.70
2018-03-28T17:10:43.808Z,7.53
2018-03-28T17:13:20.578Z,7.40
2018-03-28T17:15:56.380Z,8.90
2018-03-28T17:18:31.582Z,7.73
2018-03-28T17:20:59.105Z,9.40
2018-03-28T17:23:29.327Z,12.70
2018-03-28T17:25:58.483Z,8.70
2018-03-28T17:28:32.592Z,9.97
2018-03-28T17:31:02.989Z,10.03
2018-03-28T17:33:37.146Z,8.53
2018-03-28T17:36:08.488Z,10.53
2018-03-28T17:46:32.469Z,10.10
2018-03-28T17:51:44.324Z,12.53
2018-03-28T17:54:12.691Z,11.97
2018-03-28T17:56:41.905Z,11.37
2018-03-28T17:59:15.421Z,13.27
2018-03-28T18:01:44.411Z,11.97
2018-03-28T18:43:34.936Z,12.70
2018-03-28T18:46:08.703Z,11.37
2018-03-28T18:51:28.555Z,11.60
2018-03-28T18:53:56.452Z,10.70
2018-03-28T18:56:27.847Z,10.90
2018-03-28T18:59:01.249Z,7.97
2018-03-28T19:01:29.292Z,8.37
2018-03-28T19:04:06.255Z,6.90
2018-03-28T19:06:36.237Z,7.33
2018-03-28T19:09:08.710Z,9.10
2018-03-28T19:11:40.901Z,8.10
2018-03-28T19:14:09.877Z,7.43
2018-03-28T19:16:39.784Z,8.33
2018-03-28T19:19:10.781Z,9.70
2018-03-28T19:21:38.504Z,10.77
2018-03-28T19:24:14.692Z,12.60
2018-03-28T19:26:47.699Z,11.40
2018-03-28T19:29:22.820Z,10.10
2018-03-28T19:31:57.919Z,9.17
2018-03-28T19:34:29.116Z,9.47
2018-03-28T19:39:43.751Z,8.70
2018-03-28T19:42:12.932Z,8.83
2018-03-28T19:44:43.735Z,9.50
2018-03-28T19:47:15.929Z,9.93
2018-03-28T19:49:46.289Z,9.10
2018-03-28T19:52:14.888Z,9.90
2018-03-28T19:58:09.323Z,8.70
2018-03-28T20:03:13.648Z,8.40
2018-03-28T20:05:41.329Z,9.97
2018-03-28T20:08:11.636Z,7.73
2018-03-28T20:10:42.208Z,9.30
2018-03-28T20:13:14.218Z,7.53
2018-03-28T20:15:59.139Z,8.10
2018-03-28T20:18:26.903Z,8.80
2018-03-28T20:20:59.063Z,5.80
2018-03-28T20:23:31.795Z,6.47
2018-03-28T20:26:04.138Z,5.70
2018-03-28T20:28:36.670Z,5.73
2018-03-28T20:31:10.192Z,6.17
2018-03-28T20:33:44.603Z,6.10
2018-03-28T20:36:23.016Z,6.10
2018-03-28T20:38:51.130Z,6.10
2018-03-28T20:41:20.178Z,6.47
2018-03-28T20:43:51.341Z,7.63
2018-03-28T20:49:09.677Z,6.63
2018-03-28T20:51:37.530Z,7.60
2018-03-28T20:54:07.760Z,7.07
2018-03-28T20:56:46.584Z,6.10
2018-03-28T20:59:17.831Z,3.67
2018-03-28T21:01:49.471Z,3.70
2018-03-28T21:06:56.697Z,3.47
2018-03-28T21:09:24.927Z,2.03
2018-03-28T21:11:53.400Z,2.00
2018-03-28T21:14:31.872Z,2.40
2018-03-28T21:17:03.897Z,1.67
2018-03-28T21:19:32.695Z,1.60
2018-03-28T21:22:00.575Z,1.63
2018-03-28T21:24:29.817Z,1.30
2018-03-28T21:27:00.244Z,1.93
2018-03-28T21:29:28.671Z,1.60
2018-03-28T21:31:59.926Z,1.60
2018-03-28T21:37:04.992Z,1.73
2018-03-28T21:42:09.980Z,1.30
2018-03-28T21:44:41.505Z,1.67
2018-03-28T21:47:12.978Z,1.60
2018-03-28T21:49:40.397Z,1.43
2018-03-28T21:54:49.307Z,1.70
2018-03-28T21:57:22.840Z,1.70
2018-03-28T21:59:54.962Z,1.90
2018-03-28T22:02:29.369Z,1.87
2018-03-28T22:10:24.286Z,2.00
2018-03-28T22:12:53.437Z,2.10
2018-03-28T22:15:23.385Z,1.80
2018-03-28T22:17:54.339Z,1.77
2018-03-28T22:20:25.280Z,1.87
2018-03-28T22:22:56.188Z,1.80
2018-03-28T22:25:27.048Z,144.63
2018-03-28T22:27:56.268Z,2.63
2018-03-28T22:30:30.972Z,2.20
2018-03-28T22:32:58.516Z,2.40
2018-03-28T22:35:31.471Z,1.90
2018-03-28T22:38:11.133Z,2.07
2018-03-28T22:40:39.712Z,1.90
2018-03-28T22:43:08.224Z,2.30
2018-03-28T22:45:41.187Z,1.80
2018-03-28T22:50:44.765Z,3.00
2018-03-28T22:53:20.520Z,2.83
2018-03-28T22:55:55.362Z,2.83
2018-03-28T22:58:24.681Z,2.37
2018-03-28T23:01:01.640Z,2.60
2018-03-28T23:03:30.162Z,3.30
2018-03-28T23:05:59.556Z,3.13
2018-03-28T23:08:27.781Z,3.33
2018-03-28T23:10:58.381Z,4.17
2018-03-28T23:13:28.007Z,3.37
2018-03-28T23:18:34.939Z,3.80
2018-03-28T23:21:05.116Z,4.00
2018-03-28T23:23:35.060Z,4.27
2018-03-28T23:26:07.014Z,4.03
2018-03-28T23:28:39.513Z,4.33
2018-03-28T23:31:13.112Z,4.90
2018-03-28T23:33:42.682Z,4.50
2018-03-28T23:36:10.975Z,3.93
2018-03-28T23:38:48.116Z,4.73
2018-03-28T23:41:19.390Z,5.23
2018-03-28T23:43:51.335Z,4.90
2018-03-28T23:46:22.569Z,4.70
2018-03-28T23:48:51.217Z,4.10
2018-03-28T23:51:23.214Z,4.90
2018-03-28T23:53:50.576Z,4.03
